Scroll down
FLIGHT INFORMATION
United Parcel Service (UPS)

UPS9621

At Arrival Gate

PHOG
 PHNL
DATE: 2019-08-23
GATE:  -
GATE DEPARTURE: 02:45
TAKEOFF: 02:53
DATE: 2019-08-23
GATE: D
LANDING: 03:19
GATE ARRIVAL: 03:24
FLIGHT DATA
Crew: 
Speed: 
395 kts
Altitude: 
16,037 ft
Stage Length: 
87.3 nm
Block Time: 
0.6 hrs
Flight Time: 
0.4 hrs
Fuel Used: 
10,883 lb
Cleared Route: PHOG OGG LNY GRAMY SOBOW SERAH SAKKI JULLE ALANA MAKOA RW08L
TRACK DATA
50,000 ft 1,000 kts
AIRCRAFT INFO AND CUMULATIVE STATS
Aircraft Type: 
B744F
Registration: 
SELCAL: 
MSN/LN: 
25866 / 1002
Total Flights: 
6
Total Block Time: 
22.8 hrs
Total Flight Time: 
21.2 hrs
Total Fuel Used: 
474,518 lb
DATALINK LOG | Newest first | Current as of: 2021-11-30 20:45:29
LABEL SEQUENCE CONTENT Dn/Up
QD241103:24 24.1▼ Dn
QC192503:19▼ Dn
GA1053CARGO STAND D▲ Up
GR1047PHNL 03:18 MAAS YP/UM WCHR/S/C ▼ Dn
2U0950PHNL 230153Z 05012G19KT 10SM FEW025 SCT039 32/21 A2993 RMK AO2 SLP136 T03220206▲ Up
2S0950PHNL▼ Dn
QB544302:53▼ Dn
QA452002:45 35▼ Dn
A33531CLEARED TO PHNL VIA MAUI5 OGG LNY JULLE5. SQUAWK 2353.▲ Up
B33401PHOG PHNL UPS9621 N581UP G ▼ Dn
2U3000PHOG 230154Z 03020KT 10SM FEW040 31/21 A2994 RMK AO2 PK WND 04027/0124 SLP142 T03060211▲ Up
2S3000PHOG▼ Dn
Q03016[LINK ACK]▲ Up
Q02939[LINK TEST]▼ Dn


AIRCRAFT HISTORY
FLIGHT DATE FLIGHT NO. ORIGIN DESTINATION CLEARED ROUTE BLOCK TIME FLIGHT TIME FUEL USED PILOT
2021-01-28UPS339TJSJ KSDF TJSJ SAPPO CHYLE JSTIN FARMN MANII NELSR COUKY RENAH ALUTE LASEE SLEMA OMALY NUCAR CHS SPA VXV KSDF4.3 hrs3.9 hrs94,236 lbZsolt Szivak
2020-12-27UPS340KSDF TJSJ KSDF OHAGI LOZ SPA CHS PITRW SPIKY LURKS HARON JAINS ILIDO LETON JORGG FIPEK PUYYA PLING SAALR TJSJ3.8 hrs3.4 hrs82,630 lbZsolt Szivak
2020-12-25UPS1225KONT KSDF KONT AVRRY LANCY DRK TBE GCK KK48A KK51G DAAVE KSDF3.8 hrs3.6 hrs82,184 lbZsolt Szivak
2020-05-25UPS519PHNL KONT PHNL MKK BLUSH SESXI ALICA EBBER ELOYI ERROT ETNIC ETECO EDSEL EDTOO ELKEY DIRBY PHUNN SHHOW COAZT KARLB POXKU PDZ PDZ RW26R5.3 hrs5 hrs105,600 lbChemtrails
2019-08-23UPS9621PHOG PHNL PHOG OGG LNY GRAMY SOBOW SERAH SAKKI JULLE ALANA MAKOA RW08L0.6 hrs0.4 hrs10,883 lbTom Landry
2019-08-21UPS3821KONT PHOG KONT GMN RZS DINTY DUETS DADIE DIALO DUSAC DRAYK DENNS PHOG5 hrs4.9 hrs98,984 lbTom Landry